sensor_id;sensor_type;location;lat;lon;timestamp;P1;durP1;ratioP1;P2;durP2;ratioP2
48481;SDS011;34284;48.278;16.378;2022-07-30T00:02:15;376.50;;;235.27;;
48481;SDS011;34284;48.278;16.378;2022-07-30T00:04:42;379.98;;;271.63;;
48481;SDS011;34284;48.278;16.378;2022-07-30T00:07:07;374.52;;;231.77;;
48481;SDS011;34284;48.278;16.378;2022-07-30T00:09:34;364.90;;;231.77;;
48481;SDS011;34284;48.278;16.378;2022-07-30T00:12:00;365.25;;;229.43;;
48481;SDS011;34284;48.278;16.378;2022-07-30T00:14:26;360.67;;;229.23;;
48481;SDS011;34284;48.278;16.378;2022-07-30T00:16:52;356.02;;;224.32;;
48481;SDS011;34284;48.278;16.378;2022-07-30T00:19:18;359.13;;;226.55;;
48481;SDS011;34284;48.278;16.378;2022-07-30T00:21:44;356.67;;;226.13;;
48481;SDS011;34284;48.278;16.378;2022-07-30T00:24:10;364.30;;;228.80;;
48481;SDS011;34284;48.278;16.378;2022-07-30T00:26:37;362.10;;;229.23;;
48481;SDS011;34284;48.278;16.378;2022-07-30T00:29:03;369.90;;;232.02;;
48481;SDS011;34284;48.278;16.378;2022-07-30T00:31:29;365.58;;;230.65;;
48481;SDS011;34284;48.278;16.378;2022-07-30T00:33:55;366.85;;;232.18;;
48481;SDS011;34284;48.278;16.378;2022-07-30T00:36:21;357.70;;;229.52;;
48481;SDS011;34284;48.278;16.378;2022-07-30T00:38:47;356.67;;;223.10;;
48481;SDS011;34284;48.278;16.378;2022-07-30T00:41:14;360.38;;;224.45;;
48481;SDS011;34284;48.278;16.378;2022-07-30T00:43:40;363.65;;;228.95;;
48481;SDS011;34284;48.278;16.378;2022-07-30T00:46:06;372.25;;;227.73;;
48481;SDS011;34284;48.278;16.378;2022-07-30T00:48:31;359.27;;;224.95;;
48481;SDS011;34284;48.278;16.378;2022-07-30T00:50:57;358.33;;;228.60;;
48481;SDS011;34284;48.278;16.378;2022-07-30T00:53:23;360.88;;;226.75;;
48481;SDS011;34284;48.278;16.378;2022-07-30T00:55:49;360.50;;;226.48;;
48481;SDS011;34284;48.278;16.378;2022-07-30T00:58:15;362.10;;;227.95;;
48481;SDS011;34284;48.278;16.378;2022-07-30T01:00:42;354.80;;;222.02;;
48481;SDS011;34284;48.278;16.378;2022-07-30T01:03:08;370.70;;;227.25;;
48481;SDS011;34284;48.278;16.378;2022-07-30T01:05:34;360.52;;;222.80;;
48481;SDS011;34284;48.278;16.378;2022-07-30T01:08:00;367.52;;;231.70;;
48481;SDS011;34284;48.278;16.378;2022-07-30T01:10:26;360.63;;;226.20;;
48481;SDS011;34284;48.278;16.378;2022-07-30T01:12:52;355.77;;;222.95;;
48481;SDS011;34284;48.278;16.378;2022-07-30T01:15:19;357.13;;;222.25;;
48481;SDS011;34284;48.278;16.378;2022-07-30T01:17:45;357.63;;;222.35;;
48481;SDS011;34284;48.278;16.378;2022-07-30T01:20:23;360.80;;;223.52;;
48481;SDS011;34284;48.278;16.378;2022-07-30T01:22:54;358.60;;;228.75;;
48481;SDS011;34284;48.278;16.378;2022-07-30T01:27:58;355.25;;;222.50;;
48481;SDS011;34284;48.278;16.378;2022-07-30T01:30:26;361.13;;;224.90;;
48481;SDS011;34284;48.278;16.378;2022-07-30T01:32:52;355.30;;;223.40;;
48481;SDS011;34284;48.278;16.378;2022-07-30T01:35:19;358.10;;;224.95;;
48481;SDS011;34284;48.278;16.378;2022-07-30T01:37:46;360.00;;;226.43;;
48481;SDS011;34284;48.278;16.378;2022-07-30T01:40:12;361.38;;;222.73;;
48481;SDS011;34284;48.278;16.378;2022-07-30T01:42:39;359.77;;;224.13;;
48481;SDS011;34284;48.278;16.378;2022-07-30T01:45:06;361.85;;;224.50;;
48481;SDS011;34284;48.278;16.378;2022-07-30T01:47:33;359.85;;;224.05;;
48481;SDS011;34284;48.278;16.378;2022-07-30T01:50:00;359.42;;;222.98;;
48481;SDS011;34284;48.278;16.378;2022-07-30T01:52:27;355.45;;;223.25;;
48481;SDS011;34284;48.278;16.378;2022-07-30T01:54:55;363.42;;;222.40;;
48481;SDS011;34284;48.278;16.378;2022-07-30T01:57:21;354.67;;;222.30;;
48481;SDS011;34284;48.278;16.378;2022-07-30T01:59:49;355.95;;;222.02;;
48481;SDS011;34284;48.278;16.378;2022-07-30T02:02:15;357.58;;;220.75;;
48481;SDS011;34284;48.278;16.378;2022-07-30T02:04:41;357.00;;;225.93;;
48481;SDS011;34284;48.278;16.378;2022-07-30T02:09:39;361.65;;;227.75;;
48481;SDS011;34284;48.278;16.378;2022-07-30T02:12:07;363.83;;;226.55;;
48481;SDS011;34284;48.278;16.378;2022-07-30T02:17:28;356.92;;;225.68;;
48481;SDS011;34284;48.278;16.378;2022-07-30T02:19:54;357.83;;;221.63;;
48481;SDS011;34284;48.278;16.378;2022-07-30T02:22:21;357.08;;;220.82;;
48481;SDS011;34284;48.278;16.378;2022-07-30T02:24:48;354.05;;;221.60;;
48481;SDS011;34284;48.278;16.378;2022-07-30T02:27:17;359.08;;;225.73;;
48481;SDS011;34284;48.278;16.378;2022-07-30T02:29:45;354.25;;;220.57;;
48481;SDS011;34284;48.278;16.378;2022-07-30T02:32:13;360.92;;;224.20;;
48481;SDS011;34284;48.278;16.378;2022-07-30T02:34:39;366.25;;;227.05;;
48481;SDS011;34284;48.278;16.378;2022-07-30T02:37:07;358.48;;;221.45;;
48481;SDS011;34284;48.278;16.378;2022-07-30T02:39:36;365.98;;;222.50;;
48481;SDS011;34284;48.278;16.378;2022-07-30T02:42:03;361.05;;;224.27;;
48481;SDS011;34284;48.278;16.378;2022-07-30T02:44:29;371.30;;;225.57;;
48481;SDS011;34284;48.278;16.378;2022-07-30T02:46:55;358.33;;;221.82;;
48481;SDS011;34284;48.278;16.378;2022-07-30T02:49:22;355.27;;;220.18;;
48481;SDS011;34284;48.278;16.378;2022-07-30T02:51:48;358.27;;;221.60;;
48481;SDS011;34284;48.278;16.378;2022-07-30T02:54:16;367.90;;;223.75;;
48481;SDS011;34284;48.278;16.378;2022-07-30T02:56:43;374.43;;;227.23;;
48481;SDS011;34284;48.278;16.378;2022-07-30T02:59:10;361.35;;;222.57;;
48481;SDS011;34284;48.278;16.378;2022-07-30T03:01:36;369.73;;;224.77;;
48481;SDS011;34284;48.278;16.378;2022-07-30T03:04:03;362.30;;;224.48;;
48481;SDS011;34284;48.278;16.378;2022-07-30T03:06:29;359.13;;;220.93;;
48481;SDS011;34284;48.278;16.378;2022-07-30T03:08:56;357.73;;;222.35;;
48481;SDS011;34284;48.278;16.378;2022-07-30T03:11:22;358.05;;;221.60;;
48481;SDS011;34284;48.278;16.378;2022-07-30T03:13:49;356.55;;;221.63;;
48481;SDS011;34284;48.278;16.378;2022-07-30T03:16:15;362.13;;;225.90;;
48481;SDS011;34284;48.278;16.378;2022-07-30T03:18:41;361.77;;;222.77;;
48481;SDS011;34284;48.278;16.378;2022-07-30T03:21:08;360.08;;;223.52;;
48481;SDS011;34284;48.278;16.378;2022-07-30T03:23:36;358.90;;;221.77;;
48481;SDS011;34284;48.278;16.378;2022-07-30T03:26:04;359.38;;;221.63;;
48481;SDS011;34284;48.278;16.378;2022-07-30T03:28:30;363.27;;;225.93;;
48481;SDS011;34284;48.278;16.378;2022-07-30T03:30:57;358.67;;;226.50;;
48481;SDS011;34284;48.278;16.378;2022-07-30T03:33:23;358.88;;;226.98;;
48481;SDS011;34284;48.278;16.378;2022-07-30T03:35:50;360.30;;;226.77;;
48481;SDS011;34284;48.278;16.378;2022-07-30T03:38:17;365.35;;;224.93;;
48481;SDS011;34284;48.278;16.378;2022-07-30T03:40:44;364.77;;;225.35;;
48481;SDS011;34284;48.278;16.378;2022-07-30T03:43:10;360.80;;;225.70;;
48481;SDS011;34284;48.278;16.378;2022-07-30T03:45:37;361.52;;;226.75;;
48481;SDS011;34284;48.278;16.378;2022-07-30T03:48:04;362.35;;;225.75;;
48481;SDS011;34284;48.278;16.378;2022-07-30T03:50:32;355.45;;;221.23;;
48481;SDS011;34284;48.278;16.378;2022-07-30T03:52:59;358.70;;;225.27;;
48481;SDS011;34284;48.278;16.378;2022-07-30T03:55:25;358.58;;;219.50;;
48481;SDS011;34284;48.278;16.378;2022-07-30T03:57:51;360.95;;;221.82;;
48481;SDS011;34284;48.278;16.378;2022-07-30T04:00:17;352.98;;;217.20;;
48481;SDS011;34284;48.278;16.378;2022-07-30T04:02:44;363.42;;;227.73;;
48481;SDS011;34284;48.278;16.378;2022-07-30T04:05:10;359.67;;;223.10;;
48481;SDS011;34284;48.278;16.378;2022-07-30T04:07:37;356.73;;;219.43;;
48481;SDS011;34284;48.278;16.378;2022-07-30T04:10:03;367.25;;;226.15;;
48481;SDS011;34284;48.278;16.378;2022-07-30T04:12:29;353.83;;;217.93;;
48481;SDS011;34284;48.278;16.378;2022-07-30T04:14:55;353.90;;;221.05;;
48481;SDS011;34284;48.278;16.378;2022-07-30T04:17:31;358.05;;;218.68;;
48481;SDS011;34284;48.278;16.378;2022-07-30T04:20:07;356.52;;;220.23;;
48481;SDS011;34284;48.278;16.378;2022-07-30T04:22:35;357.43;;;221.23;;
48481;SDS011;34284;48.278;16.378;2022-07-30T04:25:03;360.48;;;222.40;;
48481;SDS011;34284;48.278;16.378;2022-07-30T04:27:32;358.85;;;223.90;;
48481;SDS011;34284;48.278;16.378;2022-07-30T04:29:59;362.75;;;223.68;;
48481;SDS011;34284;48.278;16.378;2022-07-30T04:32:25;356.00;;;222.10;;
48481;SDS011;34284;48.278;16.378;2022-07-30T04:34:52;356.13;;;220.63;;
48481;SDS011;34284;48.278;16.378;2022-07-30T04:37:20;354.00;;;221.57;;
48481;SDS011;34284;48.278;16.378;2022-07-30T04:39:46;365.85;;;224.32;;
48481;SDS011;34284;48.278;16.378;2022-07-30T04:42:18;358.37;;;225.50;;
48481;SDS011;34284;48.278;16.378;2022-07-30T04:44:44;356.40;;;224.75;;
48481;SDS011;34284;48.278;16.378;2022-07-30T04:47:10;366.98;;;223.73;;
48481;SDS011;34284;48.278;16.378;2022-07-30T04:49:36;365.38;;;227.15;;
48481;SDS011;34284;48.278;16.378;2022-07-30T04:52:03;380.15;;;229.20;;
48481;SDS011;34284;48.278;16.378;2022-07-30T04:54:36;360.00;;;223.65;;
48481;SDS011;34284;48.278;16.378;2022-07-30T04:57:03;369.17;;;228.50;;
48481;SDS011;34284;48.278;16.378;2022-07-30T04:59:30;363.88;;;228.93;;
48481;SDS011;34284;48.278;16.378;2022-07-30T05:01:56;360.48;;;226.02;;
48481;SDS011;34284;48.278;16.378;2022-07-30T05:04:23;356.97;;;221.57;;
48481;SDS011;34284;48.278;16.378;2022-07-30T05:06:50;359.90;;;229.75;;
48481;SDS011;34284;48.278;16.378;2022-07-30T05:09:16;365.80;;;231.05;;
48481;SDS011;34284;48.278;16.378;2022-07-30T05:11:48;364.13;;;228.18;;
48481;SDS011;34284;48.278;16.378;2022-07-30T05:14:14;377.48;;;245.23;;
48481;SDS011;34284;48.278;16.378;2022-07-30T05:16:40;371.42;;;232.15;;
48481;SDS011;34284;48.278;16.378;2022-07-30T05:19:06;366.98;;;232.88;;
48481;SDS011;34284;48.278;16.378;2022-07-30T05:21:33;368.73;;;228.68;;
48481;SDS011;34284;48.278;16.378;2022-07-30T05:23:59;361.52;;;227.68;;
48481;SDS011;34284;48.278;16.378;2022-07-30T05:26:25;369.25;;;246.00;;
48481;SDS011;34284;48.278;16.378;2022-07-30T05:28:51;372.38;;;244.82;;
48481;SDS011;34284;48.278;16.378;2022-07-30T05:31:17;364.10;;;226.25;;
48481;SDS011;34284;48.278;16.378;2022-07-30T05:33:43;384.63;;;243.60;;
48481;SDS011;34284;48.278;16.378;2022-07-30T05:36:09;362.13;;;221.75;;
48481;SDS011;34284;48.278;16.378;2022-07-30T05:38:35;362.67;;;224.18;;
48481;SDS011;34284;48.278;16.378;2022-07-30T05:41:01;356.25;;;222.60;;
48481;SDS011;34284;48.278;16.378;2022-07-30T05:43:27;355.10;;;225.40;;
48481;SDS011;34284;48.278;16.378;2022-07-30T05:45:53;356.48;;;222.35;;
48481;SDS011;34284;48.278;16.378;2022-07-30T05:48:19;369.33;;;224.25;;
48481;SDS011;34284;48.278;16.378;2022-07-30T05:50:45;359.90;;;223.63;;
48481;SDS011;34284;48.278;16.378;2022-07-30T05:53:11;359.80;;;218.65;;
48481;SDS011;34284;48.278;16.378;2022-07-30T05:55:37;359.77;;;228.43;;
48481;SDS011;34284;48.278;16.378;2022-07-30T05:58:03;362.83;;;222.48;;
48481;SDS011;34284;48.278;16.378;2022-07-30T06:00:29;353.70;;;219.75;;
48481;SDS011;34284;48.278;16.378;2022-07-30T06:02:55;358.63;;;220.25;;
48481;SDS011;34284;48.278;16.378;2022-07-30T06:05:21;355.10;;;221.60;;
48481;SDS011;34284;48.278;16.378;2022-07-30T06:07:47;359.77;;;221.03;;
48481;SDS011;34284;48.278;16.378;2022-07-30T06:10:13;367.03;;;224.20;;
48481;SDS011;34284;48.278;16.378;2022-07-30T06:12:39;357.88;;;218.60;;
48481;SDS011;34284;48.278;16.378;2022-07-30T06:15:06;361.60;;;221.07;;
48481;SDS011;34284;48.278;16.378;2022-07-30T06:17:32;361.50;;;219.35;;
48481;SDS011;34284;48.278;16.378;2022-07-30T06:19:58;353.48;;;217.52;;
48481;SDS011;34284;48.278;16.378;2022-07-30T06:22:25;361.40;;;218.18;;
48481;SDS011;34284;48.278;16.378;2022-07-30T06:24:51;356.98;;;220.32;;
48481;SDS011;34284;48.278;16.378;2022-07-30T06:27:17;367.40;;;222.60;;
48481;SDS011;34284;48.278;16.378;2022-07-30T06:29:43;354.98;;;221.20;;
48481;SDS011;34284;48.278;16.378;2022-07-30T06:32:09;360.08;;;222.13;;
48481;SDS011;34284;48.278;16.378;2022-07-30T06:34:35;359.65;;;218.73;;
48481;SDS011;34284;48.278;16.378;2022-07-30T06:37:01;354.42;;;214.85;;
48481;SDS011;34284;48.278;16.378;2022-07-30T06:39:27;351.08;;;217.50;;
48481;SDS011;34284;48.278;16.378;2022-07-30T06:41:53;352.30;;;218.63;;
48481;SDS011;34284;48.278;16.378;2022-07-30T06:44:18;367.27;;;221.80;;
48481;SDS011;34284;48.278;16.378;2022-07-30T06:46:45;360.95;;;222.32;;
48481;SDS011;34284;48.278;16.378;2022-07-30T06:49:11;366.85;;;224.98;;
48481;SDS011;34284;48.278;16.378;2022-07-30T06:51:37;358.57;;;220.80;;
48481;SDS011;34284;48.278;16.378;2022-07-30T06:54:03;353.17;;;219.52;;
48481;SDS011;34284;48.278;16.378;2022-07-30T06:56:29;359.73;;;219.70;;
48481;SDS011;34284;48.278;16.378;2022-07-30T06:58:54;356.13;;;222.90;;
48481;SDS011;34284;48.278;16.378;2022-07-30T07:01:20;354.45;;;223.95;;
48481;SDS011;34284;48.278;16.378;2022-07-30T07:03:47;358.55;;;221.88;;
48481;SDS011;34284;48.278;16.378;2022-07-30T07:06:13;361.60;;;225.35;;
48481;SDS011;34284;48.278;16.378;2022-07-30T07:08:39;360.20;;;226.38;;
48481;SDS011;34284;48.278;16.378;2022-07-30T07:11:05;358.63;;;223.80;;
48481;SDS011;34284;48.278;16.378;2022-07-30T07:13:31;353.30;;;221.00;;
48481;SDS011;34284;48.278;16.378;2022-07-30T07:15:57;357.88;;;224.52;;
48481;SDS011;34284;48.278;16.378;2022-07-30T07:18:23;354.00;;;220.80;;
48481;SDS011;34284;48.278;16.378;2022-07-30T07:20:50;359.33;;;228.43;;
48481;SDS011;34284;48.278;16.378;2022-07-30T07:23:16;361.60;;;221.57;;
48481;SDS011;34284;48.278;16.378;2022-07-30T07:25:42;362.67;;;223.93;;
48481;SDS011;34284;48.278;16.378;2022-07-30T07:28:08;361.90;;;228.52;;
48481;SDS011;34284;48.278;16.378;2022-07-30T07:30:34;352.55;;;221.55;;
48481;SDS011;34284;48.278;16.378;2022-07-30T07:33:00;353.42;;;223.32;;
48481;SDS011;34284;48.278;16.378;2022-07-30T07:35:26;354.23;;;218.40;;
48481;SDS011;34284;48.278;16.378;2022-07-30T07:37:52;357.73;;;222.77;;
48481;SDS011;34284;48.278;16.378;2022-07-30T07:40:18;355.83;;;219.57;;
48481;SDS011;34284;48.278;16.378;2022-07-30T07:42:44;359.08;;;218.05;;
48481;SDS011;34284;48.278;16.378;2022-07-30T07:45:10;357.42;;;220.93;;
48481;SDS011;34284;48.278;16.378;2022-07-30T07:47:47;358.75;;;219.95;;
48481;SDS011;34284;48.278;16.378;2022-07-30T07:50:16;367.40;;;217.80;;
48481;SDS011;34284;48.278;16.378;2022-07-30T07:52:43;366.20;;;222.93;;
48481;SDS011;34284;48.278;16.378;2022-07-30T07:55:09;357.95;;;220.68;;
48481;SDS011;34284;48.278;16.378;2022-07-30T07:57:39;355.02;;;220.23;;
48481;SDS011;34284;48.278;16.378;2022-07-30T08:00:05;357.75;;;222.65;;
48481;SDS011;34284;48.278;16.378;2022-07-30T08:02:31;358.83;;;221.23;;
48481;SDS011;34284;48.278;16.378;2022-07-30T08:04:57;356.20;;;220.38;;
48481;SDS011;34284;48.278;16.378;2022-07-30T08:07:23;355.00;;;223.35;;
48481;SDS011;34284;48.278;16.378;2022-07-30T08:09:49;367.67;;;224.48;;
48481;SDS011;34284;48.278;16.378;2022-07-30T08:12:15;364.38;;;224.75;;
48481;SDS011;34284;48.278;16.378;2022-07-30T08:14:41;367.63;;;226.93;;
48481;SDS011;34284;48.278;16.378;2022-07-30T08:17:07;374.40;;;229.00;;
48481;SDS011;34284;48.278;16.378;2022-07-30T08:19:34;358.30;;;226.93;;
48481;SDS011;34284;48.278;16.378;2022-07-30T08:22:00;362.42;;;228.13;;
48481;SDS011;34284;48.278;16.378;2022-07-30T08:24:26;358.40;;;228.88;;
48481;SDS011;34284;48.278;16.378;2022-07-30T08:26:51;366.52;;;230.68;;
48481;SDS011;34284;48.278;16.378;2022-07-30T08:29:17;370.08;;;231.30;;
48481;SDS011;34284;48.278;16.378;2022-07-30T08:31:43;365.55;;;231.20;;
48481;SDS011;34284;48.278;16.378;2022-07-30T08:34:09;363.40;;;230.27;;
48481;SDS011;34284;48.278;16.378;2022-07-30T08:36:37;361.55;;;229.02;;
48481;SDS011;34284;48.278;16.378;2022-07-30T08:39:03;359.55;;;230.32;;
48481;SDS011;34284;48.278;16.378;2022-07-30T08:41:29;364.05;;;230.45;;
48481;SDS011;34284;48.278;16.378;2022-07-30T08:43:55;360.33;;;233.18;;
48481;SDS011;34284;48.278;16.378;2022-07-30T08:46:24;358.95;;;231.43;;
48481;SDS011;34284;48.278;16.378;2022-07-30T08:48:52;362.23;;;234.05;;
48481;SDS011;34284;48.278;16.378;2022-07-30T08:51:18;363.13;;;231.45;;
48481;SDS011;34284;48.278;16.378;2022-07-30T08:53:44;364.20;;;233.95;;
48481;SDS011;34284;48.278;16.378;2022-07-30T08:56:10;369.50;;;238.88;;
48481;SDS011;34284;48.278;16.378;2022-07-30T08:58:37;360.55;;;231.75;;
48481;SDS011;34284;48.278;16.378;2022-07-30T09:01:04;363.77;;;235.30;;
48481;SDS011;34284;48.278;16.378;2022-07-30T09:03:30;358.10;;;233.32;;
48481;SDS011;34284;48.278;16.378;2022-07-30T09:05:56;358.23;;;233.70;;
48481;SDS011;34284;48.278;16.378;2022-07-30T09:08:22;371.35;;;237.77;;
48481;SDS011;34284;48.278;16.378;2022-07-30T09:10:49;361.77;;;234.40;;
48481;SDS011;34284;48.278;16.378;2022-07-30T09:13:21;371.15;;;240.43;;
48481;SDS011;34284;48.278;16.378;2022-07-30T09:15:48;364.20;;;232.10;;
48481;SDS011;34284;48.278;16.378;2022-07-30T09:18:14;364.75;;;234.40;;
48481;SDS011;34284;48.278;16.378;2022-07-30T09:20:50;363.70;;;233.50;;
48481;SDS011;34284;48.278;16.378;2022-07-30T09:23:16;361.10;;;231.40;;
48481;SDS011;34284;48.278;16.378;2022-07-30T09:25:43;375.85;;;246.70;;
48481;SDS011;34284;48.278;16.378;2022-07-30T09:28:09;368.58;;;235.77;;
48481;SDS011;34284;48.278;16.378;2022-07-30T09:30:49;360.92;;;231.90;;
48481;SDS011;34284;48.278;16.378;2022-07-30T09:34:01;369.02;;;233.20;;
48481;SDS011;34284;48.278;16.378;2022-07-30T09:36:03;363.42;;;232.07;;
48481;SDS011;34284;48.278;16.378;2022-07-30T09:38:40;358.90;;;231.90;;
48481;SDS011;34284;48.278;16.378;2022-07-30T09:41:06;364.08;;;239.20;;
48481;SDS011;34284;48.278;16.378;2022-07-30T09:43:40;356.27;;;229.48;;
48481;SDS011;34284;48.278;16.378;2022-07-30T09:46:06;360.92;;;231.32;;
48481;SDS011;34284;48.278;16.378;2022-07-30T09:48:32;371.23;;;229.82;;
48481;SDS011;34284;48.278;16.378;2022-07-30T09:50:58;366.23;;;233.88;;
48481;SDS011;34284;48.278;16.378;2022-07-30T09:53:24;368.55;;;231.75;;
48481;SDS011;34284;48.278;16.378;2022-07-30T09:55:50;368.20;;;235.40;;
48481;SDS011;34284;48.278;16.378;2022-07-30T09:58:16;363.10;;;234.75;;
48481;SDS011;34284;48.278;16.378;2022-07-30T10:00:42;366.40;;;239.60;;
48481;SDS011;34284;48.278;16.378;2022-07-30T10:05:53;368.98;;;242.07;;
48481;SDS011;34284;48.278;16.378;2022-07-30T10:08:20;370.33;;;244.48;;
48481;SDS011;34284;48.278;16.378;2022-07-30T10:13:28;388.17;;;256.70;;
48481;SDS011;34284;48.278;16.378;2022-07-30T10:15:54;376.42;;;242.88;;
48481;SDS011;34284;48.278;16.378;2022-07-30T10:18:21;379.35;;;245.60;;
48481;SDS011;34284;48.278;16.378;2022-07-30T10:20:48;370.67;;;242.88;;
48481;SDS011;34284;48.278;16.378;2022-07-30T10:23:14;381.70;;;251.98;;
48481;SDS011;34284;48.278;16.378;2022-07-30T10:25:40;374.88;;;253.27;;
48481;SDS011;34284;48.278;16.378;2022-07-30T10:28:06;372.05;;;250.50;;
48481;SDS011;34284;48.278;16.378;2022-07-30T10:30:32;379.50;;;247.48;;
48481;SDS011;34284;48.278;16.378;2022-07-30T10:32:58;374.27;;;247.90;;
48481;SDS011;34284;48.278;16.378;2022-07-30T10:35:24;374.75;;;254.57;;
48481;SDS011;34284;48.278;16.378;2022-07-30T10:37:50;376.35;;;260.92;;
48481;SDS011;34284;48.278;16.378;2022-07-30T10:45:16;378.63;;;274.75;;
48481;SDS011;34284;48.278;16.378;2022-07-30T10:47:46;391.05;;;277.75;;
48481;SDS011;34284;48.278;16.378;2022-07-30T10:50:14;390.75;;;282.88;;
48481;SDS011;34284;48.278;16.378;2022-07-30T10:52:47;383.80;;;287.38;;
48481;SDS011;34284;48.278;16.378;2022-07-30T10:55:18;396.17;;;283.50;;
48481;SDS011;34284;48.278;16.378;2022-07-30T11:00:25;392.88;;;281.50;;
48481;SDS011;34284;48.278;16.378;2022-07-30T11:05:35;391.10;;;287.75;;
48481;SDS011;34284;48.278;16.378;2022-07-30T11:08:43;390.92;;;294.00;;
48481;SDS011;34284;48.278;16.378;2022-07-30T11:10:50;392.88;;;290.45;;
48481;SDS011;34284;48.278;16.378;2022-07-30T11:13:16;400.38;;;295.60;;
48481;SDS011;34284;48.278;16.378;2022-07-30T11:15:58;403.98;;;313.88;;
48481;SDS011;34284;48.278;16.378;2022-07-30T11:18:26;408.50;;;318.55;;
48481;SDS011;34284;48.278;16.378;2022-07-30T11:23:47;405.15;;;326.50;;
48481;SDS011;34284;48.278;16.378;2022-07-30T11:28:58;409.95;;;336.77;;
48481;SDS011;34284;48.278;16.378;2022-07-30T11:33:50;417.02;;;358.38;;
48481;SDS011;34284;48.278;16.378;2022-07-30T11:36:16;412.80;;;359.08;;
48481;SDS011;34284;48.278;16.378;2022-07-30T11:38:55;433.25;;;371.05;;
48481;SDS011;34284;48.278;16.378;2022-07-30T11:41:22;421.38;;;370.40;;
48481;SDS011;34284;48.278;16.378;2022-07-30T11:44:03;423.75;;;362.58;;
48481;SDS011;34284;48.278;16.378;2022-07-30T11:46:34;420.85;;;372.25;;
48481;SDS011;34284;48.278;16.378;2022-07-30T11:49:02;429.70;;;371.35;;
48481;SDS011;34284;48.278;16.378;2022-07-30T11:51:41;424.70;;;372.13;;
48481;SDS011;34284;48.278;16.378;2022-07-30T11:54:08;417.25;;;353.75;;
48481;SDS011;34284;48.278;16.378;2022-07-30T11:56:34;412.20;;;355.42;;
48481;SDS011;34284;48.278;16.378;2022-07-30T11:59:05;415.42;;;358.13;;
48481;SDS011;34284;48.278;16.378;2022-07-30T12:01:31;414.25;;;345.42;;
48481;SDS011;34284;48.278;16.378;2022-07-30T12:04:00;426.92;;;368.45;;
48481;SDS011;34284;48.278;16.378;2022-07-30T12:06:27;412.70;;;351.33;;
48481;SDS011;34284;48.278;16.378;2022-07-30T12:08:55;401.98;;;334.50;;
48481;SDS011;34284;48.278;16.378;2022-07-30T12:11:22;409.33;;;331.15;;
48481;SDS011;34284;48.278;16.378;2022-07-30T12:13:55;405.20;;;326.52;;
48481;SDS011;34284;48.278;16.378;2022-07-30T12:16:24;401.52;;;334.35;;
48481;SDS011;34284;48.278;16.378;2022-07-30T12:18:50;401.48;;;319.58;;
48481;SDS011;34284;48.278;16.378;2022-07-30T12:21:16;395.40;;;321.35;;
48481;SDS011;34284;48.278;16.378;2022-07-30T12:24:04;398.95;;;321.90;;
48481;SDS011;34284;48.278;16.378;2022-07-30T12:26:32;399.63;;;325.95;;
48481;SDS011;34284;48.278;16.378;2022-07-30T12:28:59;399.65;;;315.83;;
48481;SDS011;34284;48.278;16.378;2022-07-30T12:31:26;396.55;;;318.60;;
48481;SDS011;34284;48.278;16.378;2022-07-30T12:33:52;401.20;;;317.00;;
48481;SDS011;34284;48.278;16.378;2022-07-30T12:36:27;400.13;;;312.48;;
48481;SDS011;34284;48.278;16.378;2022-07-30T12:38:55;402.73;;;317.88;;
48481;SDS011;34284;48.278;16.378;2022-07-30T12:41:22;408.38;;;328.38;;
48481;SDS011;34284;48.278;16.378;2022-07-30T12:43:51;406.23;;;314.35;;
48481;SDS011;34284;48.278;16.378;2022-07-30T12:46:25;400.40;;;303.73;;
48481;SDS011;34284;48.278;16.378;2022-07-30T12:51:18;412.08;;;319.17;;
48481;SDS011;34284;48.278;16.378;2022-07-30T12:53:44;398.60;;;313.02;;
48481;SDS011;34284;48.278;16.378;2022-07-30T12:56:14;393.13;;;312.75;;
48481;SDS011;34284;48.278;16.378;2022-07-30T12:58:40;392.80;;;303.33;;
48481;SDS011;34284;48.278;16.378;2022-07-30T13:01:07;394.40;;;304.20;;
48481;SDS011;34284;48.278;16.378;2022-07-30T13:03:33;390.55;;;307.67;;
48481;SDS011;34284;48.278;16.378;2022-07-30T13:06:16;391.60;;;301.23;;
48481;SDS011;34284;48.278;16.378;2022-07-30T13:08:55;393.52;;;311.15;;
48481;SDS011;34284;48.278;16.378;2022-07-30T13:11:22;392.17;;;304.58;;
48481;SDS011;34284;48.278;16.378;2022-07-30T13:13:49;392.83;;;299.13;;
48481;SDS011;34284;48.278;16.378;2022-07-30T13:16:15;391.88;;;297.73;;
48481;SDS011;34284;48.278;16.378;2022-07-30T13:18:41;389.42;;;294.88;;
48481;SDS011;34284;48.278;16.378;2022-07-30T13:21:07;401.23;;;301.58;;
48481;SDS011;34284;48.278;16.378;2022-07-30T13:23:34;386.80;;;285.40;;
48481;SDS011;34284;48.278;16.378;2022-07-30T13:26:01;393.25;;;294.25;;
48481;SDS011;34284;48.278;16.378;2022-07-30T13:28:27;409.50;;;294.55;;
48481;SDS011;34284;48.278;16.378;2022-07-30T13:30:54;388.77;;;285.73;;
48481;SDS011;34284;48.278;16.378;2022-07-30T13:33:20;398.10;;;287.75;;
48481;SDS011;34284;48.278;16.378;2022-07-30T13:35:46;388.40;;;277.30;;
48481;SDS011;34284;48.278;16.378;2022-07-30T13:38:13;386.08;;;275.08;;
48481;SDS011;34284;48.278;16.378;2022-07-30T13:40:39;386.67;;;278.52;;
48481;SDS011;34284;48.278;16.378;2022-07-30T13:43:06;384.70;;;283.27;;
48481;SDS011;34284;48.278;16.378;2022-07-30T13:45:33;386.73;;;279.10;;
48481;SDS011;34284;48.278;16.378;2022-07-30T13:47:59;389.48;;;276.45;;
48481;SDS011;34284;48.278;16.378;2022-07-30T13:50:25;388.15;;;280.00;;
48481;SDS011;34284;48.278;16.378;2022-07-30T13:52:51;381.80;;;278.70;;
48481;SDS011;34284;48.278;16.378;2022-07-30T13:55:17;381.48;;;274.83;;
48481;SDS011;34284;48.278;16.378;2022-07-30T13:57:43;381.27;;;270.48;;
48481;SDS011;34284;48.278;16.378;2022-07-30T14:00:09;378.77;;;275.55;;
48481;SDS011;34284;48.278;16.378;2022-07-30T14:02:36;380.30;;;270.92;;
48481;SDS011;34284;48.278;16.378;2022-07-30T14:05:02;385.33;;;277.88;;
48481;SDS011;34284;48.278;16.378;2022-07-30T14:07:34;385.20;;;271.52;;
48481;SDS011;34284;48.278;16.378;2022-07-30T14:10:00;384.65;;;280.40;;
48481;SDS011;34284;48.278;16.378;2022-07-30T14:12:27;383.23;;;268.90;;
48481;SDS011;34284;48.278;16.378;2022-07-30T14:14:53;383.75;;;273.23;;
48481;SDS011;34284;48.278;16.378;2022-07-30T14:17:19;385.33;;;271.13;;
48481;SDS011;34284;48.278;16.378;2022-07-30T14:19:45;386.02;;;277.73;;